Aknoul — C6YU5 — position and weather

sailwx.info

Track history (hours):
 
Tides and Currents Weather Stations Pressure Air Temp Water Temp Dewpoint Dewpoint Depression Visibility Wind Speed Wind Dir Waves Ship Positions

Aknoul

Last reported at 2018-Aug-16 02:14 UTC. Time now 2018-Aug-16 07:58 UTC.
Position N 37°44' W 000°22'.

Length 122 m; draft 5.4 m.

Type: Cargo ship. MMSI: 311045500.

Date/timePositionNaut miles runAvg speedWind from/ knotsBaromVisibWave heightAir tempDewpointWater temp
2018-Aug-16 02:14N 37°44' W 000°22'314.8
2018-Aug-16 02:00N 37°41' W 000°24'814.7
2018-Aug-16 01:29N 37°34' W 000°30'1414.5
2018-Aug-16 00:29N 37°24' W 000°43'  
2018-Aug-13 15:30N 35°59' W 005°30'712.1
2018-Aug-13 14:57N 36°01' W 005°23'25413.4
2018-Aug-12 20:01N 37°40' W 000°30'014.2
2018-Aug-12 20:00N 37°40' W 000°30'6314.4
2018-Aug-12 15:36N 38°33' E 000°14'36914.7
2018-Aug-11 14:29N 43°21' E 005°19'401 9.4
2018-Aug-09 19:40N 38°04' W 000°05'2515.7
2018-Aug-09 18:05N 37°43' W 000°22'115.9
2018-Aug-09 18:00N 37°42' W 000°23'916.0
2018-Aug-09 17:28N 37°35' W 000°30'1615.8
2018-Aug-09 16:27N 37°23' W 000°44'22815.4
2018-Aug-09 01:40N 35°60' W 005°08'317.9
2018-Aug-09 01:30N 35°59' W 005°11'917.9
2018-Aug-09 01:00N 35°58' W 005°22'  
2018-Aug-06 16:49N 37°26' W 000°45'814.6
2018-Aug-06 16:16N 37°32' W 000°37'414.5
2018-Aug-06 16:00N 37°34' W 000°34'714.4
2018-Aug-06 15:30N 37°40' W 000°29'714.6
2018-Aug-06 15:00N 37°46' W 000°24'714.6
2018-Aug-06 14:30N 37°53' W 000°19'714.6
2018-Aug-06 14:00N 37°59' W 000°14'714.5
2018-Aug-06 13:30N 38°05' W 000°09'1014.8
2018-Aug-06 12:52N 38°13' W 000°03'  
Track history (hours):
 
Tides and Currents Weather Stations Pressure Air Temp Water Temp Dewpoint Dewpoint Depression Visibility Wind Speed Wind Dir Waves Ship Positions

Aknoul

Last reported at 2018-Aug-16 02:14 UTC. Time now 2018-Aug-16 07:58 UTC.
Position N 37°44' W 000°22'.

Length 122 m; draft 5.4 m.

Type: Cargo ship. MMSI: 311045500.

Date/timePositionNaut miles runAvg speedWind from/ knotsBaromVisibWave heightAir tempDewpointWater temp
2018-Aug-16 02:14N 37°44' W 000°22'314.8
2018-Aug-16 02:00N 37°41' W 000°24'814.7
2018-Aug-16 01:29N 37°34' W 000°30'1414.5
2018-Aug-16 00:29N 37°24' W 000°43'  
2018-Aug-13 15:30N 35°59' W 005°30'712.1
2018-Aug-13 14:57N 36°01' W 005°23'25413.4
2018-Aug-12 20:01N 37°40' W 000°30'014.2
2018-Aug-12 20:00N 37°40' W 000°30'6314.4
2018-Aug-12 15:36N 38°33' E 000°14'36914.7
2018-Aug-11 14:29N 43°21' E 005°19'401 9.4
2018-Aug-09 19:40N 38°04' W 000°05'2515.7
2018-Aug-09 18:05N 37°43' W 000°22'115.9
2018-Aug-09 18:00N 37°42' W 000°23'916.0
2018-Aug-09 17:28N 37°35' W 000°30'1615.8
2018-Aug-09 16:27N 37°23' W 000°44'22815.4
2018-Aug-09 01:40N 35°60' W 005°08'317.9
2018-Aug-09 01:30N 35°59' W 005°11'917.9
2018-Aug-09 01:00N 35°58' W 005°22'  
2018-Aug-06 16:49N 37°26' W 000°45'814.6
2018-Aug-06 16:16N 37°32' W 000°37'414.5
2018-Aug-06 16:00N 37°34' W 000°34'714.4
2018-Aug-06 15:30N 37°40' W 000°29'714.6
2018-Aug-06 15:00N 37°46' W 000°24'714.6
2018-Aug-06 14:30N 37°53' W 000°19'714.6
2018-Aug-06 14:00N 37°59' W 000°14'714.5
2018-Aug-06 13:30N 38°05' W 000°09'1014.8
2018-Aug-06 12:52N 38°13' W 000°03'  

Dump ship's entire track history